Time;durP1;ratioP1;P1;durP2;ratioP2;P2;SDS_P1;SDS_P2;PMS_P1;PMS_P2;Temp;Humidity;BMP_temperature;BMP_pressure;BME280_temperature;BME280_humidity;BME280_pressure;Samples;Min_cycle;Max_cycle;Signal;HPM_P1;HPM_P2
2021/10/31 00:01:19;;;;;;;31.30;15.93;;;;;;;11.93;78.14;100628.59;5123897;27;20031;-72
2021/10/31 00:03:45;;;;;;;29.83;16.90;;;;;;;11.96;77.22;100635.41;5123357;27;20238;-72
2021/10/31 00:06:10;;;;;;;32.35;16.63;;;;;;;11.92;77.90;100631.41;5115385;27;20329;-72
2021/10/31 00:08:36;;;;;;;27.42;15.32;;;;;;;12.07;77.58;100630.72;5115358;28;20027;-72
2021/10/31 00:11:02;;;;;;;29.52;16.92;;;;;;;11.90;78.24;100628.06;5123754;27;20199;-72
2021/10/31 00:13:28;;;;;;;27.77;16.70;;;;;;;11.77;78.46;100628.38;5123446;27;20040;-72
2021/10/31 00:15:54;;;;;;;30.58;17.08;;;;;;;11.88;78.66;100630.03;5123606;27;20072;-72
2021/10/31 00:18:19;;;;;;;33.42;16.95;;;;;;;11.88;79.13;100630.84;5115123;28;20039;-72
2021/10/31 00:20:45;;;;;;;29.60;16.33;;;;;;;11.76;78.90;100622.22;5113881;28;20258;-72
2021/10/31 00:23:11;;;;;;;25.98;16.92;;;;;;;11.71;79.29;100621.00;5123756;27;20045;-72
2021/10/31 00:25:36;;;;;;;29.05;17.20;;;;;;;11.83;78.84;100609.25;5123304;27;20283;-72
2021/10/31 00:28:02;;;;;;;25.55;16.38;;;;;;;11.92;78.28;100607.50;5114397;28;20036;-71
2021/10/31 00:30:28;;;;;;;29.27;16.45;;;;;;;12.03;78.33;100615.25;5114296;27;20061;-72
2021/10/31 00:32:53;;;;;;;31.30;16.92;;;;;;;11.96;78.70;100617.69;5115520;28;20388;-72
2021/10/31 00:35:18;;;;;;;32.72;16.15;;;;;;;12.05;78.31;100616.78;5123447;28;20039;-72
2021/10/31 00:37:44;;;;;;;30.75;17.10;;;;;;;11.90;77.59;100606.81;5124391;27;20035;-72
2021/10/31 00:40:10;;;;;;;29.65;18.02;;;;;;;11.65;79.71;100606.50;5114816;27;20047;-72
2021/10/31 00:42:36;;;;;;;34.10;18.25;;;;;;;11.77;79.78;100612.47;5114596;27;20031;-72
2021/10/31 00:45:04;;;;;;;32.13;17.33;;;;;;;11.80;79.40;100609.53;5114995;28;20133;-72
2021/10/31 00:47:29;;;;;;;34.00;18.00;;;;;;;11.82;78.99;100607.56;5122865;27;20279;-72
2021/10/31 00:49:55;;;;;;;31.30;18.38;;;;;;;11.87;79.82;100607.13;5114458;28;20039;-72
2021/10/31 00:52:21;;;;;;;28.42;17.30;;;;;;;11.88;79.01;100598.19;5122905;27;20031;-72
2021/10/31 00:54:48;;;;;;;30.17;17.10;;;;;;;11.92;78.79;100608.34;5122763;27;20251;-71
2021/10/31 00:57:14;;;;;;;30.27;17.10;;;;;;;11.95;78.46;100604.56;5122759;27;20042;-71
2021/10/31 00:59:40;;;;;;;31.23;16.95;;;;;;;11.94;78.51;100606.38;5122888;27;20023;-72
2021/10/31 01:02:10;;;;;;;29.38;16.25;;;;;;;11.91;78.47;100598.72;5113264;28;20039;-72
2021/10/31 01:04:36;;;;;;;28.73;16.83;;;;;;;11.95;78.27;100597.44;5122317;27;20412;-72
2021/10/31 01:07:15;;;;;;;31.33;16.70;;;;;;;11.94;78.59;100600.22;5114661;28;20027;-72
2021/10/31 01:10:08;;;;;;;28.05;17.27;;;;;;;11.95;79.24;100597.44;5121187;27;20046;-72
2021/10/31 01:13:00;;;;;;;28.95;17.20;;;;;;;11.93;79.44;100603.88;5119719;28;20063;-72
2021/10/31 01:15:40;;;;;;;28.70;16.08;;;;;;;11.88;78.89;100595.53;5128727;27;20032;-72
2021/10/31 01:18:34;;;;;;;31.67;16.85;;;;;;;11.93;79.03;100601.22;5113864;28;20044;-72
2021/10/31 01:21:24;;;;;;;26.13;16.77;;;;;;;11.95;78.65;100601.91;5122460;28;20042;-71
2021/10/31 01:23:52;;;;;;;29.30;15.93;;;;;;;11.89;79.07;100602.50;5113475;28;20039;-72
2021/10/31 01:26:47;;;;;;;26.17;15.70;;;;;;;11.90;79.02;100598.84;5117419;28;20374;-71
2021/10/31 01:29:50;;;;;;;27.90;16.38;;;;;;;11.84;79.17;100600.28;5113883;28;20042;-72
2021/10/31 01:32:40;;;;;;;26.17;15.38;;;;;;;11.92;79.17;100599.53;5116213;28;20028;-71
2021/10/31 01:35:17;;;;;;;28.67;16.15;;;;;;;11.90;78.59;100596.22;5121704;28;20065;-72
2021/10/31 01:37:55;;;;;;;24.75;14.85;;;;;;;11.77;79.91;100594.75;5114145;28;20026;-72
2021/10/31 01:40:30;;;;;;;29.10;15.80;;;;;;;11.65;79.70;100585.28;5122095;28;20035;-72
2021/10/31 01:42:55;;;;;;;28.00;15.98;;;;;;;11.62;80.47;100590.91;5124017;27;20039;-72
2021/10/31 01:45:27;;;;;;;26.77;16.05;;;;;;;11.60;80.70;100581.41;5126426;27;20321;-72
2021/10/31 01:48:00;;;;;;;26.30;15.55;;;;;;;11.70;81.01;100587.50;5125422;27;20351;-72
2021/10/31 01:50:28;;;;;;;26.97;15.47;;;;;;;11.70;80.81;100587.50;5126503;27;20031;-72
2021/10/31 01:53:31;;;;;;;25.48;14.80;;;;;;;11.65;81.53;100579.16;5125130;27;20019;-72
2021/10/31 01:56:12;;;;;;;30.17;15.77;;;;;;;11.48;81.70;100573.66;5122532;27;20073;-72
2021/10/31 01:58:43;;;;;;;25.58;15.95;;;;;;;11.42;82.26;100568.91;5117925;28;20024;-71
2021/10/31 02:01:12;;;;;;;28.40;16.02;;;;;;;11.41;81.53;100574.38;5117478;28;20314;-71
2021/10/31 02:03:39;;;;;;;27.92;16.35;;;;;;;11.33;81.97;100577.75;5125224;27;20051;-72
2021/10/31 02:06:06;;;;;;;28.80;16.33;;;;;;;11.32;82.12;100576.09;5117390;28;20053;-72
2021/10/31 02:08:34;;;;;;;29.92;16.70;;;;;;;11.35;82.24;100581.09;5125899;27;20035;-72
2021/10/31 02:11:01;;;;;;;32.00;16.75;;;;;;;11.18;82.84;100579.22;5117767;28;20348;-72
2021/10/31 02:13:28;;;;;;;29.95;15.93;;;;;;;11.12;82.27;100564.72;5117596;28;20035;-71
2021/10/31 02:15:55;;;;;;;27.98;16.50;;;;;;;11.17;82.63;100573.06;5126022;27;20038;-71
2021/10/31 02:18:22;;;;;;;25.80;15.95;;;;;;;11.12;82.99;100577.16;5117378;28;20059;-72
2021/10/31 02:20:52;;;;;;;30.67;17.38;;;;;;;11.16;82.73;100574.06;5125531;27;20039;-72
2021/10/31 02:23:18;;;;;;;33.47;17.33;;;;;;;11.16;82.81;100574.06;5126054;27;20237;-71
2021/10/31 02:25:44;;;;;;;30.17;16.85;;;;;;;11.17;82.66;100581.03;5125589;27;20047;-72
2021/10/31 02:28:09;;;;;;;29.38;16.45;;;;;;;11.21;82.04;100578.91;5117730;28;20259;-71
2021/10/31 02:30:35;;;;;;;27.95;16.75;;;;;;;11.18;82.21;100580.06;5117540;28;20035;-72
2021/10/31 02:33:00;;;;;;;34.35;17.52;;;;;;;11.23;82.10;100571.66;5124535;27;20032;-72
2021/10/31 02:35:26;;;;;;;35.83;16.92;;;;;;;11.14;82.11;100580.47;5119745;27;20209;-72
2021/10/31 02:37:52;;;;;;;34.80;17.17;;;;;;;11.20;82.18;100569.28;5116980;28;20216;-72
2021/10/31 02:40:20;;;;;;;36.30;17.98;;;;;;;11.22;82.20;100563.84;5116950;28;20036;-72
2021/10/31 02:42:45;;;;;;;28.33;16.80;;;;;;;11.31;81.63;100570.94;5124357;27;20046;-72
2021/10/31 02:45:12;;;;;;;30.92;17.25;;;;;;;11.22;82.41;100566.50;5125699;27;20106;-71
2021/10/31 02:47:48;;;;;;;34.10;18.10;;;;;;;10.99;84.27;100564.22;5115461;27;20103;-71
2021/10/31 02:50:19;;;;;;;31.83;18.30;;;;;;;11.11;84.44;100572.81;5116719;27;20051;-71
2021/10/31 02:53:03;;;;;;;31.85;18.13;;;;;;;11.18;83.55;100564.16;5157505;27;20032;-72
2021/10/31 02:55:47;;;;;;;32.55;19.63;;;;;;;11.31;83.64;100563.81;5117044;28;20241;-72
2021/10/31 02:58:12;;;;;;;36.17;18.60;;;;;;;11.18;83.45;100572.09;5116846;28;20043;-72
2021/10/31 03:00:39;;;;;;;27.88;17.55;;;;;;;11.13;84.33;100573.50;5124146;27;20031;-71
2021/10/31 03:03:07;;;;;;;30.13;17.83;;;;;;;11.19;83.55;100578.22;5116420;28;20072;-72
2021/10/31 03:05:34;;;;;;;30.05;17.67;;;;;;;11.33;82.52;100572.44;5116325;28;20039;-71
2021/10/31 03:08:00;;;;;;;35.72;18.45;;;;;;;11.32;82.67;100577.91;5122494;27;20044;-72
2021/10/31 03:10:27;;;;;;;31.92;17.55;;;;;;;11.24;83.28;100580.44;5116405;28;20107;-71
2021/10/31 03:12:52;;;;;;;33.63;18.65;;;;;;;11.10;83.78;100577.28;5117891;27;20062;-72
2021/10/31 03:15:18;;;;;;;28.00;17.20;;;;;;;11.06;83.70;100577.72;5124522;27;20047;-72
2021/10/31 03:17:44;;;;;;;34.22;18.65;;;;;;;11.05;84.45;100576.88;5121833;27;20157;-72
2021/10/31 03:20:10;;;;;;;30.13;17.77;;;;;;;11.09;83.89;100580.09;5119471;27;20332;-72
2021/10/31 03:22:36;;;;;;;28.45;17.27;;;;;;;11.11;83.36;100571.00;5121173;27;20040;-72
2021/10/31 03:25:02;;;;;;;32.47;18.52;;;;;;;11.20;83.69;100580.75;5120170;27;20276;-72
2021/10/31 03:27:28;;;;;;;33.40;18.58;;;;;;;11.30;82.82;100569.25;5124238;27;20027;-72
2021/10/31 03:29:53;;;;;;;31.92;17.75;;;;;;;11.51;81.40;100581.31;5124591;27;20050;-71
2021/10/31 03:32:19;;;;;;;31.00;18.50;;;;;;;11.37;81.61;100531.41;5116230;28;20098;-71
2021/10/31 03:34:44;;;;;;;28.45;17.63;;;;;;;11.54;80.88;100572.25;5124286;27;20265;-71
2021/10/31 03:37:10;;;;;;;28.92;17.00;;;;;;;11.43;81.57;100567.94;5123492;27;20035;-72
2021/10/31 03:39:36;;;;;;;34.05;17.70;;;;;;;11.44;81.84;100574.06;5123976;27;20094;-72
2021/10/31 03:42:01;;;;;;;29.65;17.38;;;;;;;11.63;80.54;100575.81;5116177;28;20054;-72
2021/10/31 03:44:28;;;;;;;35.05;17.83;;;;;;;11.60;80.54;100569.00;5114766;28;20045;-72
2021/10/31 03:46:54;;;;;;;34.42;16.88;;;;;;;11.78;79.73;100571.69;5124045;27;20015;-72
2021/10/31 03:49:19;;;;;;;29.15;16.60;;;;;;;11.93;78.78;100570.19;5114751;28;20337;-72
2021/10/31 03:51:46;;;;;;;28.77;16.17;;;;;;;11.82;78.61;100563.28;5124042;27;20031;-72
2021/10/31 03:54:12;;;;;;;30.42;17.45;;;;;;;11.93;78.06;100564.06;5123737;27;20087;-72
2021/10/31 03:56:38;;;;;;;31.80;17.30;;;;;;;11.88;78.37;100564.50;5122500;27;20270;-72
2021/10/31 03:59:04;;;;;;;30.10;16.58;;;;;;;11.82;78.54;100568.59;5115200;28;20027;-72
2021/10/31 04:01:32;;;;;;;30.20;17.05;;;;;;;11.85;77.91;100562.16;5117797;27;20213;-71
2021/10/31 04:03:58;;;;;;;33.92;17.67;;;;;;;11.91;77.42;100555.41;5123573;27;20084;-71
2021/10/31 04:06:24;;;;;;;27.92;17.20;;;;;;;11.98;77.43;100567.94;5120425;27;20032;-72
2021/10/31 04:08:49;;;;;;;26.30;16.48;;;;;;;11.97;76.88;100566.25;5119293;27;20084;-72
2021/10/31 04:11:14;;;;;;;34.72;18.50;;;;;;;11.81;77.84;100561.63;5119084;28;20036;-72
2021/10/31 04:13:40;;;;;;;36.85;19.17;;;;;;;11.77;78.64;100567.34;5118449;27;20019;-72
2021/10/31 04:16:05;;;;;;;35.83;19.60;;;;;;;11.81;78.63;100555.47;5117950;27;20373;-72
2021/10/31 04:18:31;;;;;;;34.38;18.17;;;;;;;11.87;77.74;100557.53;5120815;27;20073;-72
2021/10/31 04:20:57;;;;;;;42.03;21.27;;;;;;;11.86;77.83;100557.69;5123865;27;20240;-72
2021/10/31 04:23:23;;;;;;;35.97;21.05;;;;;;;11.83;77.38;100548.22;5114973;28;20038;-72
2021/10/31 04:25:49;;;;;;;36.90;20.83;;;;;;;11.90;77.74;100551.09;5123365;27;20028;-72
2021/10/31 04:28:14;;;;;;;38.30;19.58;;;;;;;11.87;77.22;100565.50;5123260;27;20365;-72
2021/10/31 04:30:40;;;;;;;32.45;17.98;;;;;;;11.91;76.85;100558.91;5122239;27;20042;-72
2021/10/31 04:33:05;;;;;;;33.83;18.30;;;;;;;11.92;77.48;100563.22;5123285;27;20064;-71
2021/10/31 04:35:31;;;;;;;33.13;17.27;;;;;;;12.00;76.20;100568.63;5114782;28;20046;-72
2021/10/31 04:38:04;;;;;;;27.60;16.95;;;;;;;11.73;77.12;100555.38;5122641;27;20035;-72
2021/10/31 04:40:33;;;;;;;27.33;17.13;;;;;;;11.60;78.07;100555.72;5116259;28;20071;-72
2021/10/31 04:42:59;;;;;;;26.75;16.88;;;;;;;11.48;79.03;100557.75;5113709;28;20031;-72
2021/10/31 04:45:24;;;;;;;29.15;17.67;;;;;;;11.29;80.15;100557.81;5117412;28;20221;-72
2021/10/31 04:47:50;;;;;;;29.20;17.05;;;;;;;11.50;78.32;100547.81;5122546;27;20092;-72
2021/10/31 04:50:15;;;;;;;32.33;18.95;;;;;;;11.46;79.47;100550.91;5114591;28;20099;-72
2021/10/31 04:52:43;;;;;;;38.63;21.15;;;;;;;11.50;78.70;100554.94;5122120;27;20038;-72
2021/10/31 04:55:09;;;;;;;40.13;22.52;;;;;;;11.48;78.84;100557.75;5122682;27;20377;-72
2021/10/31 04:57:34;;;;;;;35.47;21.08;;;;;;;11.40;80.01;100547.00;5122683;27;20051;-72
2021/10/31 05:00:00;;;;;;;41.33;20.58;;;;;;;11.58;78.50;100552.38;5121503;27;20041;-71
2021/10/31 05:02:26;;;;;;;33.38;19.95;;;;;;;11.63;79.69;100557.25;5122985;27;20040;-71
2021/10/31 05:04:51;;;;;;;36.40;19.77;;;;;;;11.75;78.61;100554.22;5114594;28;20035;-72
2021/10/31 05:07:17;;;;;;;33.13;18.88;;;;;;;11.86;78.28;100553.22;5122301;27;20039;-72
2021/10/31 05:09:42;;;;;;;33.75;19.45;;;;;;;11.91;77.82;100550.09;5114357;27;20039;-73
2021/10/31 05:12:08;;;;;;;35.22;18.20;;;;;;;11.96;77.92;100551.31;5122412;27;20027;-72
2021/10/31 05:14:33;;;;;;;38.05;20.25;;;;;;;12.05;77.81;100553.06;5122230;27;20051;-71
2021/10/31 05:17:00;;;;;;;39.33;22.50;;;;;;;12.14;76.76;100548.66;5122104;27;20264;-72
2021/10/31 05:19:25;;;;;;;41.22;23.73;;;;;;;12.17;76.79;100547.53;5114347;28;20065;-72
2021/10/31 05:21:51;;;;;;;44.13;24.42;;;;;;;12.27;76.32;100556.25;5114398;28;20269;-72
2021/10/31 05:24:16;;;;;;;39.30;23.10;;;;;;;12.34;75.36;100554.66;5122388;28;20086;-72
2021/10/31 05:26:42;;;;;;;35.30;19.20;;;;;;;12.26;75.35;100557.22;5114198;28;20027;-72
2021/10/31 05:29:07;;;;;;;33.97;19.10;;;;;;;12.27;75.00;100557.06;5113943;28;20031;-72
2021/10/31 05:31:33;;;;;;;31.38;19.65;;;;;;;12.21;75.57;100552.38;5114089;28;20015;-72
2021/10/31 05:33:58;;;;;;;33.55;19.02;;;;;;;12.28;75.43;100549.94;5112694;28;20024;-71
2021/10/31 05:36:24;;;;;;;46.40;27.52;;;;;;;12.39;75.76;100550.53;5122125;28;20016;-72
2021/10/31 05:38:49;;;;;;;31.90;19.77;;;;;;;12.27;75.24;100556.25;5122281;28;20069;-72
2021/10/31 05:41:15;;;;;;;39.78;21.83;;;;;;;12.38;74.76;100545.38;5113082;28;20027;-72
2021/10/31 05:43:40;;;;;;;41.00;21.30;;;;;;;12.41;74.99;100550.38;5122025;28;20039;-72
2021/10/31 05:46:06;;;;;;;39.40;23.08;;;;;;;12.20;75.10;100539.25;5122359;28;20028;-72
2021/10/31 05:48:31;;;;;;;52.42;26.55;;;;;;;12.15;76.10;100553.81;5114220;28;20035;-72
2021/10/31 05:50:57;;;;;;;44.58;23.02;;;;;;;12.33;76.05;100551.16;5114138;28;20027;-72
2021/10/31 05:53:23;;;;;;;42.45;23.38;;;;;;;12.32;76.05;100548.66;5113911;28;20072;-72
2021/10/31 05:55:50;;;;;;;42.25;23.35;;;;;;;12.33;76.18;100552.97;5113793;28;20259;-72
2021/10/31 05:58:15;;;;;;;44.47;25.13;;;;;;;12.39;75.59;100557.66;5113784;28;20074;-72
2021/10/31 06:00:41;;;;;;;51.28;29.05;;;;;;;12.23;77.42;100560.19;5112953;28;20321;-72
2021/10/31 06:03:06;;;;;;;48.53;27.67;;;;;;;12.47;75.79;100557.72;5122184;28;20095;-71
2021/10/31 06:05:32;;;;;;;54.88;30.13;;;;;;;12.50;76.11;100556.63;5113043;28;20046;-71
2021/10/31 06:07:58;;;;;;;38.47;22.50;;;;;;;12.32;75.71;100544.16;5121117;28;20094;-72
2021/10/31 06:10:23;;;;;;;34.00;19.85;;;;;;;12.10;76.51;100549.97;5102292;28;20141;-72
2021/10/31 06:12:49;;;;;;;31.75;19.42;;;;;;;11.96;76.83;100553.16;5114703;28;20230;-72
2021/10/31 06:15:18;;;;;;;38.58;19.27;;;;;;;12.00;77.78;100549.19;5122085;27;20039;-72
2021/10/31 06:17:44;;;;;;;33.38;17.58;;;;;;;12.13;76.79;100557.63;5121656;28;20333;-72
2021/10/31 06:20:12;;;;;;;35.65;20.88;;;;;;;12.23;77.11;100554.88;5118466;28;20040;-72
2021/10/31 06:22:38;;;;;;;32.92;21.67;;;;;;;12.21;77.09;100559.50;5117236;28;20069;-72
2021/10/31 06:25:05;;;;;;;25.95;17.02;;;;;;;12.15;76.58;100559.13;5113388;28;20035;-72
2021/10/31 06:27:31;;;;;;;30.90;19.33;;;;;;;12.15;76.87;100559.13;5113561;28;20039;-73
2021/10/31 06:29:57;;;;;;;181.82;85.25;;;;;;;12.18;77.09;100562.47;5117484;27;20348;-72
2021/10/31 06:32:23;;;;;;;475.60;205.23;;;;;;;12.25;77.48;100566.19;5117163;27;20069;-72
2021/10/31 06:34:48;;;;;;;195.75;78.93;;;;;;;12.52;76.76;100565.28;5125568;27;20043;-71
2021/10/31 06:37:13;;;;;;;84.88;40.08;;;;;;;12.62;75.69;100558.03;5124213;27;20221;-71
2021/10/31 06:39:39;;;;;;;54.70;28.65;;;;;;;12.38;76.03;100564.81;5125420;27;20324;-72
2021/10/31 06:42:05;;;;;;;41.15;21.52;;;;;;;12.38;77.11;100569.28;5125507;27;20030;-72
2021/10/31 06:44:30;;;;;;;38.80;21.27;;;;;;;12.51;76.31;100566.25;5125241;27;20039;-72
2021/10/31 06:46:56;;;;;;;61.30;32.95;;;;;;;12.62;76.34;100563.34;5124677;27;20349;-72
2021/10/31 06:49:21;;;;;;;53.22;27.23;;;;;;;12.65;75.99;100557.72;5116848;27;20396;-72
2021/10/31 06:51:47;;;;;;;28.45;18.42;;;;;;;12.55;76.30;100557.00;5124574;27;20072;-72
2021/10/31 06:54:14;;;;;;;36.30;22.75;;;;;;;12.62;75.60;100556.22;5116425;28;20035;-72
2021/10/31 06:56:40;;;;;;;35.13;21.35;;;;;;;12.74;74.96;100564.75;5118216;28;20039;-72
2021/10/31 06:59:05;;;;;;;39.58;20.70;;;;;;;12.77;74.81;100564.44;5119116;27;20667;-72
2021/10/31 07:01:31;;;;;;;30.95;18.48;;;;;;;12.71;74.96;100560.59;5122338;27;20280;-71
2021/10/31 07:03:56;;;;;;;30.80;19.17;;;;;;;12.92;74.25;100560.22;5116109;28;20347;-72
2021/10/31 07:06:21;;;;;;;40.90;21.10;;;;;;;12.98;73.96;100564.91;5120103;27;20042;-72
2021/10/31 07:08:47;;;;;;;36.22;20.40;;;;;;;12.99;74.25;100557.78;5116104;28;20317;-72
2021/10/31 07:11:12;;;;;;;37.60;21.20;;;;;;;12.93;74.17;100553.91;5152551;27;20098;-72
2021/10/31 07:13:39;;;;;;;43.83;19.85;;;;;;;13.19;73.59;100567.22;5124283;27;20036;-72
2021/10/31 07:16:04;;;;;;;38.03;20.25;;;;;;;13.01;74.61;100561.94;5116759;28;20028;-72
2021/10/31 07:18:30;;;;;;;36.10;19.90;;;;;;;12.96;74.63;100566.06;5116293;28;20065;-72
2021/10/31 07:20:56;;;;;;;36.15;20.60;;;;;;;12.92;75.21;100567.38;5124786;27;20032;-72
2021/10/31 07:23:21;;;;;;;40.92;19.95;;;;;;;13.05;73.74;100565.94;5116358;28;20019;-72
2021/10/31 07:25:47;;;;;;;35.08;20.88;;;;;;;13.14;73.77;100574.81;5116032;28;20038;-73
2021/10/31 07:28:12;;;;;;;33.58;19.73;;;;;;;13.24;73.56;100561.41;5124684;27;20036;-72
2021/10/31 07:30:38;;;;;;;41.63;19.95;;;;;;;13.32;73.38;100564.94;5115443;28;20044;-72
2021/10/31 07:33:03;;;;;;;44.28;20.92;;;;;;;13.40;73.31;100564.16;5116242;28;20040;-72
2021/10/31 07:35:30;;;;;;;29.67;19.63;;;;;;;12.98;72.61;100559.59;5124747;27;20031;-72
2021/10/31 07:37:56;;;;;;;31.35;17.70;;;;;;;12.75;72.80;100545.16;5116116;28;20055;-71
2021/10/31 07:40:25;;;;;;;34.65;15.73;;;;;;;12.84;72.18;100562.84;5114754;27;20203;-71
2021/10/31 07:42:51;;;;;;;22.23;13.32;;;;;;;13.00;70.11;100557.63;5120957;28;20061;-72
2021/10/31 07:45:17;;;;;;;23.55;14.27;;;;;;;12.85;70.82;100553.88;5115813;28;20275;-72
2021/10/31 07:47:42;;;;;;;33.28;16.52;;;;;;;12.96;69.81;100558.09;5115743;28;20040;-72
2021/10/31 07:50:09;;;;;;;24.77;16.50;;;;;;;12.92;70.12;100559.41;5118670;27;20043;-72
2021/10/31 07:52:35;;;;;;;27.75;15.80;;;;;;;12.73;70.80;100560.44;5124628;27;20211;-72
2021/10/31 07:55:03;;;;;;;29.35;16.75;;;;;;;12.63;71.06;100549.06;5124083;27;20038;-72
2021/10/31 07:57:30;;;;;;;32.40;18.55;;;;;;;12.39;71.13;100553.19;5118699;28;20134;-72
2021/10/31 07:59:56;;;;;;;33.08;20.17;;;;;;;12.50;71.14;100554.81;5115077;28;20317;-72
2021/10/31 08:02:21;;;;;;;35.47;21.77;;;;;;;12.56;71.48;100553.34;5121614;28;20057;-72
2021/10/31 08:04:46;;;;;;;147.18;36.42;;;;;;;12.81;70.39;100549.88;5116894;27;20036;-72
2021/10/31 08:07:13;;;;;;;83.28;31.92;;;;;;;12.84;70.79;100541.56;5155694;27;20047;-72
2021/10/31 08:09:39;;;;;;;44.65;24.83;;;;;;;12.55;71.92;100549.03;5123997;27;20039;-71
2021/10/31 08:12:04;;;;;;;43.83;25.20;;;;;;;12.59;71.50;100547.72;5115380;27;20024;-72
2021/10/31 08:14:30;;;;;;;37.60;21.58;;;;;;;12.45;72.49;100549.91;5115285;28;20055;-72
2021/10/31 08:16:56;;;;;;;46.70;23.85;;;;;;;12.57;72.56;100552.34;5122617;27;20035;-72
2021/10/31 08:19:24;;;;;;;40.63;20.98;;;;;;;12.57;72.66;100549.69;5115276;27;20043;-72
2021/10/31 08:21:53;;;;;;;35.53;23.13;;;;;;;12.71;71.09;100543.81;5122259;27;20321;-72
2021/10/31 08:24:20;;;;;;;36.88;19.75;;;;;;;12.97;71.39;100552.63;5115266;28;20329;-72
2021/10/31 08:26:46;;;;;;;36.60;20.35;;;;;;;13.00;70.86;100546.16;5115083;28;20031;-72
2021/10/31 08:29:13;;;;;;;35.17;18.83;;;;;;;13.06;70.31;100549.00;5113661;28;20031;-72
2021/10/31 08:31:41;;;;;;;31.00;17.23;;;;;;;13.02;70.15;100544.16;5114634;28;20019;-71
2021/10/31 08:34:07;;;;;;;26.92;15.55;;;;;;;12.86;71.35;100539.59;5122835;27;20028;-72
2021/10/31 08:36:34;;;;;;;29.13;16.15;;;;;;;13.21;70.89;100546.63;5115219;27;20250;-73
2021/10/31 08:39:00;;;;;;;25.10;16.98;;;;;;;13.01;71.29;100540.69;5115204;27;20046;-73
2021/10/31 08:41:28;;;;;;;30.38;16.70;;;;;;;13.09;70.58;100542.53;5121028;27;20038;-72
2021/10/31 08:43:59;;;;;;;26.92;14.57;;;;;;;13.08;70.14;100548.84;5121531;27;20027;-72
2021/10/31 08:46:27;;;;;;;25.58;17.30;;;;;;;13.05;70.67;100543.84;5117579;28;20145;-71
2021/10/31 08:48:53;;;;;;;24.88;16.67;;;;;;;13.07;70.67;100537.38;5117896;28;20055;-72
2021/10/31 08:51:24;;;;;;;29.05;19.90;;;;;;;12.95;70.21;100536.00;5120876;27;20023;-72
2021/10/31 08:53:50;;;;;;;23.75;14.38;;;;;;;13.19;70.25;100527.31;5117074;28;20333;-73
2021/10/31 08:56:16;;;;;;;24.55;15.55;;;;;;;13.38;68.50;100520.91;5121036;27;20031;-72
2021/10/31 08:58:43;;;;;;;25.92;15.75;;;;;;;13.49;68.42;100528.59;5117891;28;20049;-72
2021/10/31 09:01:10;;;;;;;25.42;14.13;;;;;;;13.35;68.77;100521.25;5120856;27;20252;-73
2021/10/31 09:03:35;;;;;;;22.02;13.80;;;;;;;13.42;68.52;100509.78;5119603;27;20031;-73
2021/10/31 09:06:01;;;;;;;19.50;12.30;;;;;;;13.68;68.07;100511.53;5117679;28;20035;-73
2021/10/31 09:08:26;;;;;;;24.13;13.70;;;;;;;13.67;67.68;100512.53;5116980;28;20248;-72
2021/10/31 09:10:53;;;;;;;27.45;17.35;;;;;;;13.53;68.45;100511.34;5117527;28;20331;-72
2021/10/31 09:13:22;;;;;;;23.13;14.05;;;;;;;13.44;69.02;100501.66;5120538;27;20028;-72
2021/10/31 09:15:50;;;;;;;24.60;15.20;;;;;;;13.54;68.64;100502.38;5121501;28;20027;-71
2021/10/31 09:18:16;;;;;;;28.42;15.23;;;;;;;13.69;67.88;100499.91;5112523;28;20394;-71
2021/10/31 09:20:42;;;;;;;23.90;13.27;;;;;;;13.86;67.64;100512.25;5117271;28;20048;-72
2021/10/31 09:23:08;;;;;;;46.05;15.77;;;;;;;14.00;66.96;100500.94;5117335;28;20022;-72
2021/10/31 09:25:35;;;;;;;27.83;14.40;;;;;;;14.01;66.64;100510.59;5117644;28;20030;-73
2021/10/31 09:28:02;;;;;;;31.30;15.63;;;;;;;14.15;66.46;100501.09;5117596;28;21023;-72
2021/10/31 09:30:32;;;;;;;27.45;14.50;;;;;;;14.30;66.50;100496.78;5117087;28;20333;-72
2021/10/31 09:32:58;;;;;;;27.40;16.52;;;;;;;14.37;65.54;100492.44;5117485;28;20038;-72
2021/10/31 09:35:26;;;;;;;23.63;14.23;;;;;;;14.56;64.82;100493.09;5121118;28;20047;-72
2021/10/31 09:38:01;;;;;;;23.40;13.43;;;;;;;14.64;64.63;100487.78;5117208;28;20068;-72
2021/10/31 09:40:28;;;;;;;24.98;13.48;;;;;;;14.88;63.51;100485.06;5117959;28;20232;-72
2021/10/31 09:42:55;;;;;;;26.23;15.70;;;;;;;15.14;62.35;100479.44;5120057;28;20028;-72
2021/10/31 09:45:22;;;;;;;20.15;13.02;;;;;;;15.14;61.70;100478.63;5116062;28;20053;-72
2021/10/31 09:47:56;;;;;;;21.58;11.50;;;;;;;15.27;61.32;100468.22;5118645;28;20031;-72
2021/10/31 09:50:23;;;;;;;23.73;13.00;;;;;;;15.32;59.60;100466.69;5117544;28;20040;-73
2021/10/31 09:52:49;;;;;;;21.55;11.80;;;;;;;15.57;58.69;100458.53;5117275;28;20036;-72
2021/10/31 09:55:14;;;;;;;19.48;11.77;;;;;;;15.69;58.60;100459.00;5117135;28;20080;-73
2021/10/31 09:57:40;;;;;;;20.05;11.15;;;;;;;15.59;58.17;100454.72;5119256;28;20217;-73
2021/10/31 10:00:06;;;;;;;16.40;11.02;;;;;;;15.72;57.26;100456.00;5121094;28;20099;-72
2021/10/31 10:05:23;;;;;;;23.27;12.48;;;;;;;15.95;58.06;100446.13;5106822;28;20051;-73
2021/10/31 10:08:12;;;;;;;23.33;13.02;;;;;;;16.08;56.42;100441.00;5120966;28;20190;-72
2021/10/31 10:10:53;;;;;;;14.70;9.65;;;;;;;16.01;55.17;100437.38;5121128;28;20106;-73
2021/10/31 10:13:26;;;;;;;24.65;10.07;;;;;;;16.14;54.44;100434.94;5122618;27;20272;-72
2021/10/31 10:16:08;;;;;;;23.10;12.18;;;;;;;16.22;54.10;100423.34;5124341;27;20057;-72
2021/10/31 10:18:34;;;;;;;16.08;11.20;;;;;;;16.07;54.96;100417.97;5122140;27;20039;-72
2021/10/31 10:21:21;;;;;;;20.00;12.27;;;;;;;15.91;55.54;100415.44;5120911;28;20221;-72
2021/10/31 10:24:13;;;;;;;23.55;14.60;;;;;;;15.98;54.97;100418.22;5121468;27;20190;-72
2021/10/31 10:26:42;;;;;;;23.33;12.70;;;;;;;16.13;55.25;100413.75;5120514;27;20387;-72
2021/10/31 10:29:19;;;;;;;27.02;14.43;;;;;;;16.31;54.89;100405.38;5119519;27;20058;-72
2021/10/31 10:31:47;;;;;;;22.60;13.57;;;;;;;16.16;55.16;100400.03;5124102;27;20035;-72
2021/10/31 10:34:13;;;;;;;25.27;12.75;;;;;;;16.26;55.14;100392.56;5120435;27;20032;-73
2021/10/31 10:36:47;;;;;;;19.45;12.07;;;;;;;16.36;54.90;100395.78;5123813;27;20321;-73
2021/10/31 10:39:17;;;;;;;24.42;12.35;;;;;;;16.39;54.13;100381.25;5120374;27;20059;-72
2021/10/31 10:41:51;;;;;;;20.20;12.70;;;;;;;16.33;54.46;100382.81;5123663;27;20814;-72
2021/10/31 10:44:19;;;;;;;;;;;;;;;16.56;53.62;100382.72;5120667;28;20039;-73
2021/10/31 10:46:47;;;;;;;18.55;11.02;;;;;;;16.47;54.28;100378.47;5120635;27;19923;-73
2021/10/31 10:49:17;;;;;;;16.77;11.02;;;;;;;16.30;54.67;100372.47;5123418;27;20031;-73
2021/10/31 10:51:45;;;;;;;21.10;11.57;;;;;;;16.25;54.81;100369.53;5119010;28;20058;-72
2021/10/31 10:54:15;;;;;;;14.68;9.02;;;;;;;16.14;56.08;100372.66;5121949;27;20140;-73
2021/10/31 10:57:04;;;;;;;23.50;11.07;;;;;;;16.13;54.61;100363.81;5122782;27;20064;-72
2021/10/31 10:59:30;;;;;;;17.35;10.77;;;;;;;16.13;54.83;100368.31;5120349;27;20059;-73
2021/10/31 11:02:13;;;;;;;17.85;10.40;;;;;;;16.17;54.43;100361.59;5118856;28;20027;-72
2021/10/31 11:04:41;;;;;;;19.15;10.50;;;;;;;16.25;54.08;100357.00;5122763;27;20027;-72
2021/10/31 11:07:08;;;;;;;18.63;11.63;;;;;;;16.25;55.44;100358.84;5119729;28;20074;-72
2021/10/31 11:09:37;;;;;;;22.05;12.07;;;;;;;15.70;56.51;100346.69;5123371;27;20329;-72
2021/10/31 11:12:32;;;;;;;25.77;11.57;;;;;;;15.49;57.24;100347.31;5122719;27;20321;-72
2021/10/31 11:15:20;;;;;;;22.92;11.98;;;;;;;15.69;56.44;100350.38;5122103;27;20040;-72
2021/10/31 11:17:48;;;;;;;20.20;12.00;;;;;;;15.74;55.97;100345.31;5118030;28;20279;-73